Weather observations for the past three days for
Walnut Ridge Regional Airport
Metric (Imperial)
Date Time (cdt) Wind (kph) Vis. (km) Weather Sky Cond. Temperature (ºC) Relative Humidity Wind Chill (°C) Heat Index (°C) Pressure Precipitation (cm)
Air Dwpt 6 hour altimeter (cm) sea level (mb) 1 hr 3 hr 6 hr
Max. Min.
02 01:56 Calm 16.09 Fair CLR 26.1 21.7 77% 28 76.28 1016.5
02 00:56 SE 7 16.09 Fair CLR 26.7 21.7 32.8 26.1 74% 29 76.25 1016.5
01 23:56 SE 11 16.09 Fair CLR 26.1 21.7 77% 28 76.25 1016.2
01 22:56 SE 9 16.09 Fair CLR 26.7 22.2 76% 29 76.23 1015.9
01 21:56 SE 6 16.09 Fair CLR 27.8 22.8 74% 31 76.2 1015.8
01 20:56 S 9 16.09 Fair CLR 28.9 22.2 67% 32 76.17 1015.5
01 19:56 Calm 16.09 Fair CLR 29.4 22.8 68% 33 76.15 1015.0
01 18:56 S 11 16.09 Fair CLR 32.8 21.7 36.7 32.8 52% 36 76.15 1015.2
01 17:56 S 11 16.09 Fair CLR 35.6 20.6 41% 39 76.17 1015.4
01 16:56 S 13 16.09 Fair CLR 36.1 21.7 43% 41 76.17 1015.2
01 15:56 S 19 16.09 Fair CLR 36.1 21.1 42% 40 76.2 1015.5
01 14:56 SE 15 16.09 Fair CLR 36.1 21.7 43% 41 76.23 1016.1
01 13:56 S 13 16.09 Fair CLR 35.6 21.7 44% 40 76.3 1016.9
01 11:56 Calm 16.09 Fair CLR 34.4 22.2 49% 39 76.38 1018.1
01 09:56 SW 9 16.09 Fair CLR 31.7 22.8 59% 36 76.43 1018.7
01 08:56 S 9 16.09 Fair CLR 28.9 22.8 70% 32 76.45 1019.0
01 07:56 Calm 16.09 Fair CLR 25 23.9 94% 26 76.45 1019.0
01 06:56 SE 7 16.09 Fair CLR 22.8 22.8 25.6 22.2 100% 76.4 1018.5
01 05:56 Calm 16.09 Fair CLR 22.2 22.2 100% 76.38 1018.0
01 04:56 Calm 16.09 Fair CLR 23.3 22.8 97% 76.35 1017.5
01 03:56 S 6 16.09 Fair CLR 22.8 22.2 96% 76.3 1017.3
01 02:56 N 9 16.09 Fair CLR 23.3 22.2 94% 76.3 1016.9
01 01:56 N 11 16.09 Fair CLR 24.4 21.7 85% 25 76.28 1016.7
01 00:56 Calm 16.09 Fair CLR 25.6 21.7 31.1 24.4 79% 27 76.28 1016.8
31 23:56 Calm 16.09 Fair CLR 25.6 21.7 79% 27 76.28 1016.8
31 22:56 SE 9 16.09 Fair CLR 25 22.8 88% 26 76.28 1016.9
31 21:56 SE 9 16.09 Fair CLR 27.8 21.7 69% 30 76.28 1016.7
31 20:56 S 11 16.09 Fair CLR 27.8 21.7 69% 30 76.23 1016.2
31 19:56 S 13 16.09 Fair CLR 28.3 21.7 67% 31 76.17 1015.5
31 18:56 S 11 16.09 Fair CLR 31.1 21.7 35.6 31.1 57% 34 76.17 1015.4
31 17:56 S 15 16.09 Fair CLR 34.4 21.1 46% 38 76.2 1015.6
31 16:56 S 15 16.09 Fair CLR 35 21.7 46% 39 76.2 1015.8
31 15:56 S 11 16.09 Fair CLR 35 21.1 44% 39 76.25 1016.3
31 14:56 SW 13 16.09 A Few Clouds FEW060 35 22.2 47% 40 76.28 1016.7
31 13:56 SW 17 16.09 Fair CLR 35 21.7 46% 39 76.33 1017.4
31 11:56 S 11 16.09 Fair CLR 33.9 22.8 52% 39 76.4 1018.6
31 10:56 Vrbl 9 16.09 Fair CLR 31.7 22.8 59% 36 76.43 1018.9
31 09:56 SW 17 16.09 Fair CLR 30 22.2 63% 33 76.43 1018.8
31 08:56 S 15 16.09 Fair CLR 27.2 22.2 74% 30 76.43 1018.7
31 07:56 S 6 16.09 Fair CLR 23.9 22.8 94% 23 76.4 1018.5
31 06:56 SE 6 16.09 Fair CLR 21.1 20.6 24.4 21.1 97% 76.35 1017.9
31 05:56 Calm 16.09 Fair CLR 21.7 20.6 94% 76.33 1017.4
31 04:56 Calm 16.09 Fair CLR 22.8 19.4 81% 76.3 1017.0
31 03:56 NW 6 16.09 Fair CLR 22.8 19.4 81% 76.25 1016.5
31 02:56 SW 6 16.09 Fair CLR 23.3 19.4 79% 76.25 1016.3
31 01:56 S 7 16.09 Fair CLR 22.8 19.4 81% 76.25 1016.4
31 00:56 S 6 16.09 Fair CLR 24.4 18.9 31.1 23.3 72% 25 76.28 1016.6
30 23:56 S 9 16.09 Fair CLR 23.9 19.4 76% 24 76.25 1016.5
30 22:56 Calm 16.09 Fair CLR 25.6 19.4 69% 27 76.25 1016.4
30 21:56 SE 6 16.09 Fair CLR 26.1 19.4 67% 27 76.23 1016.2
30 20:56 SE 11 16.09 Fair CLR 26.1 20 69% 27 76.2 1015.8
30 19:56 S 7 16.09 Fair CLR 28.9 18.9 55% 30 76.17 1015.4
30 18:56 S 7 16.09 Fair CLR 31.1 19.4 34.4 31.1 50% 33 76.17 1015.4
30 17:56 S 19 16.09 Fair CLR 33.3 17.2 38% 34 76.2 1015.6
30 16:56 S 15 16.09 Fair CLR 33.9 17.8 38% 35 76.2 1015.7
30 15:56 S 19 16.09 Fair CLR 34.4 16.7 35% 35 76.23 1015.9
30 14:56 S 24 G 30 16.09 Fair CLR 34.4 15.6 32% 34 76.25 1016.6
30 13:56 S 17 16.09 Fair CLR 33.9 15.6 33% 34 76.3 1017.1
30 12:56 S 22 16.09 Fair CLR 33.3 17.2 33.3 17.8 38% 34 76.35 1017.6
30 11:56 S 17 16.09 Fair CLR 32.2 17.2 41% 33 76.38 1018.1
30 10:56 S 13 16.09 Fair CLR 30 18.3 49% 31 76.4 1018.4
30 09:56 S 7 16.09 Fair CLR 27.2 18.3 58% 28 76.4 1018.3
30 08:56 Calm 16.09 Fair CLR 23.3 19.4 79% 76.43 1018.8
30 07:56 Calm 16.09 Fair CLR 20 18.9 93% 76.43 1018.8
30 06:56 Calm 14.48 Fair CLR 17.8 17.8 21.1 17.2 100% 76.4 1018.4
30 05:56 N 7 14.48 Fair CLR 17.2 17.2 100% 76.33 1017.5
30 04:56 Calm 16.09 Fair CLR 18.9 18.9 100% 76.3 1017.2
30 03:56 Calm 16.09 Fair CLR 18.3 18.3 100% 76.3 1017.2
30 02:56 N 6 16.09 Fair CLR 17.8 17.8 100% 76.33 1017.5
Date Time (cdt) Wind (kph) Vis. (km) Weather Sky Cond. Air Dwpt Max. Min. Relative Humidity Wind Chill (°C) Heat Index (°C) altimeter (cm) sea level (mb) 1 hr 3 hr 6 hr
6 hour
Temperature (ºC) Pressure Precipitation (cm)